Grosclose, Virginia
Current Conditions -  °F | °C
As of 2:35 PM on Thursday 27 Nov 2014 (Local Time) from KMKJ Reporting Station
Overcast Overcast  
Wind Chill: 22°   Ceiling: 1700
Heat Index: 32°   Visibility: 10mi
Dew Point: 26°   Wind: 15mph
Humidity: 78%   Direction: 290°WNW
Pressure: 30.12"   Gusts: 37mph
Location:  36.8797°N, 81.2941°W
Report Text: KMKJ 271935Z AUTO 29013G32KT 10SM OVC017 00/M03 A3012 RMK AO2 T00001034
Loading
Personal Weather Stations






























Interactive Weather Map New forecast layout! Learn more

10-Day Weather Forecast

Advertisements
Track Severe Weather on mobile